CDT,Max TemperatureF,Mean TemperatureF,Min TemperatureF,Max Dew PointF,MeanDew PointF,Min DewpointF,Max Humidity, Mean Humidity, Min Humidity, Max Sea Level PressureIn, Mean Sea Level PressureIn, Min Sea Level PressureIn, Max VisibilityMiles, Mean VisibilityMiles, Min VisibilityMiles, Max Wind SpeedMPH, Mean Wind SpeedMPH, Max Gust SpeedMPH,PrecipitationIn, CloudCover, Events, WindDirDegrees
2013-5-1,96,84,73,68,64,57,78,55,26,29.85,29.77,29.72,10,9,5,13,9,20,0.00,4,,134
2013-5-2,82,72,62,69,54,36,80,52,32,30.32,30.06,29.85,10,9,7,22,13,33,0.00,6,,10
2013-5-3,72,64,52,40,24,12,59,27,10,30.42,30.26,30.10,10,10,10,22,15,31,0.00,3,,333
2013-5-4,83,66,49,41,34,25,68,33,12,30.11,30.00,29.87,10,10,10,12,4,18,0.00,0,,155
2013-5-5,89,73,57,50,39,27,71,34,11,30.06,30.00,29.95,10,10,10,13,6,20,0.00,0,,106
2013-5-6,89,75,61,59,49,37,83,45,16,30.07,30.00,29.90,10,10,10,18,10,29,0.00,0,,120
2013-5-7,87,76,66,63,60,55,76,61,36,30.04,29.97,29.89,10,10,10,16,9,24,0.00,5,,121
2013-5-8,91,82,72,65,62,59,72,57,33,29.97,29.90,29.82,10,10,7,17,12,25,0.00,5,,135
2013-5-9,92,84,75,68,65,59,73,55,32,29.91,29.83,29.74,10,8,7,16,10,24,0.03,3,,125
2013-5-10,97,85,73,69,66,51,85,60,20,29.93,29.82,29.73,10,6,3,17,8,26,0.00,3,Thunderstorm,78
2013-5-11,84,75,66,68,64,58,92,70,40,30.08,30.02,29.94,10,9,1,18,7,34,1.53,7,Rain-Thunderstorm,4
2013-5-12,78,70,63,65,60,54,93,74,45,30.20,30.14,30.08,10,8,2,14,8,22,1.26,7,Rain-Thunderstorm,11
2013-5-13,79,73,67,67,60,50,92,68,38,30.25,30.20,30.14,10,10,7,9,2,,0.01,5,Rain,142
2013-5-14,80,74,69,70,65,62,91,73,54,30.20,30.12,30.02,10,9,4,18,7,24,0.13,7,Rain-Thunderstorm,126
2013-5-15,89,80,72,71,69,65,92,74,44,30.05,29.95,29.81,10,9,5,17,10,29,0.05,5,Rain-Thunderstorm,146
2013-5-16,99,84,70,71,66,55,90,61,22,29.87,29.78,29.68,10,9,7,15,9,20,0.00,0,,144
2013-5-17,99,86,72,71,68,61,91,60,27,29.84,29.78,29.73,10,8,4,15,9,22,0.00,0,,132
2013-5-18,95,86,76,69,66,59,78,57,35,29.87,29.81,29.74,10,8,5,17,12,28,0.00,0,,134
2013-5-19,97,86,75,70,68,65,83,59,36,29.82,29.74,29.66,10,8,5,17,12,25,0.00,1,,131
2013-5-20,96,86,75,70,67,64,83,58,37,29.77,29.71,29.63,10,8,5,20,11,26,0.00,2,,129
2013-5-21,94,86,77,70,68,66,77,59,41,29.75,29.70,29.65,10,7,4,18,10,23,0.00,4,,128
2013-5-22,86,82,77,72,70,68,82,68,58,29.87,29.80,29.73,7,6,5,12,5,16,0.00,6,,94
2013-5-23,93,84,75,72,69,66,83,63,41,29.94,29.87,29.80,10,8,7,16,9,24,0.00,5,,116
2013-5-24,89,78,68,71,68,62,93,75,49,30.06,29.98,29.85,10,9,1,22,10,32,1.05,4,Rain-Thunderstorm,102
2013-5-25,90,79,68,71,68,65,94,70,44,30.06,30.00,29.92,10,9,2,18,6,26,0.00,3,,120
2013-5-26,88,82,76,73,70,68,90,70,52,30.04,29.98,29.90,10,9,7,17,10,28,0.00,4,Rain-Thunderstorm,119
2013-5-27,92,84,75,71,67,60,85,62,39,29.99,29.89,29.78,10,10,7,20,11,26,0.00,4,,133
2013-5-28,95,86,76,69,67,59,78,59,30,29.87,29.76,29.67,10,10,7,24,14,36,0.00,4,,138
2013-5-29,92,84,75,72,68,65,90,63,40,29.83,29.72,29.62,10,10,2,21,14,32,0.35,5,Rain-Thunderstorm,136
2013-5-30,93,85,77,70,69,67,78,63,41,29.80,29.74,29.70,10,10,10,16,11,23,0.00,6,,135
2013-5-31,98,88,77,71,68,62,83,58,31,29.85,29.78,29.69,10,10,7,16,10,25,0.00,2,,133